sensor_id;sensor_type;location;lat;lon;timestamp;pressure;altitude;pressure_sealevel;temperature;humidity
28911;BME280;16028;42.642;23.310;2023-04-01T00:00:48;93117.69;;;12.60;57.95
28911;BME280;16028;42.642;23.310;2023-04-01T00:03:15;93111.34;;;12.54;58.47
28911;BME280;16028;42.642;23.310;2023-04-01T00:05:41;93106.06;;;12.62;58.09
28911;BME280;16028;42.642;23.310;2023-04-01T00:08:08;93118.75;;;12.51;59.01
28911;BME280;16028;42.642;23.310;2023-04-01T00:10:34;93117.56;;;12.39;59.85
28911;BME280;16028;42.642;23.310;2023-04-01T00:13:01;93125.59;;;12.37;60.32
28911;BME280;16028;42.642;23.310;2023-04-01T00:15:28;93126.84;;;12.41;59.71
28911;BME280;16028;42.642;23.310;2023-04-01T00:17:55;93117.84;;;12.58;59.96
28911;BME280;16028;42.642;23.310;2023-04-01T00:20:21;93128.56;;;12.34;61.80
28911;BME280;16028;42.642;23.310;2023-04-01T00:22:48;93138.81;;;12.21;61.74
28911;BME280;16028;42.642;23.310;2023-04-01T00:25:14;93121.91;;;12.17;62.58
28911;BME280;16028;42.642;23.310;2023-04-01T00:27:41;93133.50;;;12.14;63.21
28911;BME280;16028;42.642;23.310;2023-04-01T00:30:08;93134.22;;;12.08;62.96
28911;BME280;16028;42.642;23.310;2023-04-01T00:32:36;93126.56;;;12.07;63.32
28911;BME280;16028;42.642;23.310;2023-04-01T00:35:03;93125.94;;;12.05;64.40
28911;BME280;16028;42.642;23.310;2023-04-01T00:37:29;93121.25;;;12.00;64.78
28911;BME280;16028;42.642;23.310;2023-04-01T00:39:56;93114.97;;;12.09;64.59
28911;BME280;16028;42.642;23.310;2023-04-01T00:42:23;93096.72;;;12.09;64.88
28911;BME280;16028;42.642;23.310;2023-04-01T00:44:51;93095.84;;;12.02;65.20
28911;BME280;16028;42.642;23.310;2023-04-01T00:47:18;93108.00;;;11.87;66.39
28911;BME280;16028;42.642;23.310;2023-04-01T00:49:47;93096.63;;;11.88;66.88
28911;BME280;16028;42.642;23.310;2023-04-01T00:52:15;93103.34;;;11.83;65.92
28911;BME280;16028;42.642;23.310;2023-04-01T00:54:44;93099.22;;;11.74;66.75
28911;BME280;16028;42.642;23.310;2023-04-01T00:57:12;93092.06;;;11.67;67.06
28911;BME280;16028;42.642;23.310;2023-04-01T00:59:40;93107.59;;;11.84;67.41
28911;BME280;16028;42.642;23.310;2023-04-01T01:02:08;93091.25;;;11.67;67.30
28911;BME280;16028;42.642;23.310;2023-04-01T01:04:36;93066.53;;;11.63;67.64
28911;BME280;16028;42.642;23.310;2023-04-01T01:07:06;93070.59;;;11.65;66.20
28911;BME280;16028;42.642;23.310;2023-04-01T01:09:39;93070.66;;;11.57;66.16
28911;BME280;16028;42.642;23.310;2023-04-01T01:12:08;93052.09;;;11.60;65.11
28911;BME280;16028;42.642;23.310;2023-04-01T01:14:45;93052.31;;;11.74;64.90
28911;BME280;16028;42.642;23.310;2023-04-01T01:17:17;93057.28;;;11.60;65.23
28911;BME280;16028;42.642;23.310;2023-04-01T01:19:55;93049.19;;;11.55;65.45
28911;BME280;16028;42.642;23.310;2023-04-01T01:27:54;93046.47;;;11.49;65.57
28911;BME280;16028;42.642;23.310;2023-04-01T01:30:32;93044.88;;;11.48;67.98
28911;BME280;16028;42.642;23.310;2023-04-01T01:35:47;93028.13;;;11.42;66.36
28911;BME280;16028;42.642;23.310;2023-04-01T01:38:16;93038.13;;;11.39;65.29
28911;BME280;16028;42.642;23.310;2023-04-01T01:40:44;93021.84;;;11.37;65.71
28911;BME280;16028;42.642;23.310;2023-04-01T01:43:12;93031.59;;;11.57;63.84
28911;BME280;16028;42.642;23.310;2023-04-01T01:45:42;93024.16;;;11.54;63.66
28911;BME280;16028;42.642;23.310;2023-04-01T01:48:10;93028.25;;;11.49;64.22
28911;BME280;16028;42.642;23.310;2023-04-01T01:50:37;93034.28;;;11.49;63.85
28911;BME280;16028;42.642;23.310;2023-04-01T01:53:07;93013.91;;;11.53;63.37
28911;BME280;16028;42.642;23.310;2023-04-01T01:55:35;93010.88;;;11.64;61.38
28911;BME280;16028;42.642;23.310;2023-04-01T01:58:04;93008.06;;;11.65;61.82
28911;BME280;16028;42.642;23.310;2023-04-01T02:00:32;93009.19;;;11.86;60.59
28911;BME280;16028;42.642;23.310;2023-04-01T02:02:59;93022.78;;;11.96;60.92
28911;BME280;16028;42.642;23.310;2023-04-01T02:05:26;93008.56;;;11.84;61.02
28911;BME280;16028;42.642;23.310;2023-04-01T02:07:55;93005.88;;;11.77;62.19
28911;BME280;16028;42.642;23.310;2023-04-01T02:10:25;93001.03;;;11.74;62.96
28911;BME280;16028;42.642;23.310;2023-04-01T02:12:53;93008.84;;;11.74;64.59
28911;BME280;16028;42.642;23.310;2023-04-01T02:15:22;93003.44;;;11.76;63.73
28911;BME280;16028;42.642;23.310;2023-04-01T02:17:51;93005.44;;;11.74;63.02
28911;BME280;16028;42.642;23.310;2023-04-01T02:20:19;92993.47;;;11.79;62.63
28911;BME280;16028;42.642;23.310;2023-04-01T02:22:48;92997.28;;;11.68;63.07
28911;BME280;16028;42.642;23.310;2023-04-01T02:25:16;92999.91;;;11.68;64.55
28911;BME280;16028;42.642;23.310;2023-04-01T02:27:46;92987.31;;;11.57;64.28
28911;BME280;16028;42.642;23.310;2023-04-01T02:30:13;93000.34;;;11.57;65.10
28911;BME280;16028;42.642;23.310;2023-04-01T02:32:40;92994.41;;;11.49;65.60
28911;BME280;16028;42.642;23.310;2023-04-01T02:35:08;93009.13;;;11.56;64.17
28911;BME280;16028;42.642;23.310;2023-04-01T02:37:36;92999.69;;;11.55;63.32
28911;BME280;16028;42.642;23.310;2023-04-01T02:40:03;93007.63;;;11.62;62.87
28911;BME280;16028;42.642;23.310;2023-04-01T02:42:31;92995.81;;;11.74;58.91
28911;BME280;16028;42.642;23.310;2023-04-01T02:44:59;93001.53;;;11.69;60.82
28911;BME280;16028;42.642;23.310;2023-04-01T02:47:27;93004.47;;;11.66;61.83
28911;BME280;16028;42.642;23.310;2023-04-01T02:49:54;93016.88;;;11.64;62.58
28911;BME280;16028;42.642;23.310;2023-04-01T02:52:23;93015.16;;;11.57;63.18
28911;BME280;16028;42.642;23.310;2023-04-01T02:54:50;93015.63;;;11.60;64.23
28911;BME280;16028;42.642;23.310;2023-04-01T02:57:16;93025.59;;;11.57;64.08
28911;BME280;16028;42.642;23.310;2023-04-01T02:59:43;93029.72;;;11.66;62.28
28911;BME280;16028;42.642;23.310;2023-04-01T03:02:10;93027.69;;;11.76;60.87
28911;BME280;16028;42.642;23.310;2023-04-01T03:04:37;93036.63;;;11.59;62.79
28911;BME280;16028;42.642;23.310;2023-04-01T03:07:04;93038.41;;;11.58;62.63
28911;BME280;16028;42.642;23.310;2023-04-01T03:09:30;93036.91;;;11.64;62.33
28911;BME280;16028;42.642;23.310;2023-04-01T03:11:57;93033.88;;;11.75;61.47
28911;BME280;16028;42.642;23.310;2023-04-01T03:14:23;93029.09;;;11.64;62.86
28911;BME280;16028;42.642;23.310;2023-04-01T03:16:50;93040.84;;;11.60;62.94
28911;BME280;16028;42.642;23.310;2023-04-01T03:19:18;93035.97;;;11.80;60.27
28911;BME280;16028;42.642;23.310;2023-04-01T03:21:44;93030.19;;;11.84;62.25
28911;BME280;16028;42.642;23.310;2023-04-01T03:24:11;93044.31;;;11.75;62.69
28911;BME280;16028;42.642;23.310;2023-04-01T03:26:37;93056.25;;;11.84;63.46
28911;BME280;16028;42.642;23.310;2023-04-01T03:29:04;93045.56;;;11.79;60.84
28911;BME280;16028;42.642;23.310;2023-04-01T03:31:30;93039.91;;;11.76;62.96
28911;BME280;16028;42.642;23.310;2023-04-01T03:33:57;93037.56;;;11.81;65.92
28911;BME280;16028;42.642;23.310;2023-04-01T03:36:25;93037.81;;;11.71;68.64
28911;BME280;16028;42.642;23.310;2023-04-01T03:38:51;93032.06;;;11.61;68.17
28911;BME280;16028;42.642;23.310;2023-04-01T03:41:18;93026.19;;;11.44;68.26
28911;BME280;16028;42.642;23.310;2023-04-01T03:43:44;93016.75;;;11.29;69.31
28911;BME280;16028;42.642;23.310;2023-04-01T03:46:11;93001.03;;;11.37;71.45
28911;BME280;16028;42.642;23.310;2023-04-01T03:48:37;93004.81;;;11.34;71.51
28911;BME280;16028;42.642;23.310;2023-04-01T03:51:06;92992.13;;;11.31;71.94
28911;BME280;16028;42.642;23.310;2023-04-01T03:53:34;92980.09;;;11.30;73.47
28911;BME280;16028;42.642;23.310;2023-04-01T03:56:03;92963.03;;;11.28;73.03
28911;BME280;16028;42.642;23.310;2023-04-01T03:58:29;92965.03;;;11.26;72.63
28911;BME280;16028;42.642;23.310;2023-04-01T04:00:56;92950.75;;;11.22;72.42
28911;BME280;16028;42.642;23.310;2023-04-01T04:03:22;92934.59;;;11.26;72.76
28911;BME280;16028;42.642;23.310;2023-04-01T04:05:49;92933.53;;;11.35;72.74
28911;BME280;16028;42.642;23.310;2023-04-01T04:08:16;92931.75;;;11.36;72.63
28911;BME280;16028;42.642;23.310;2023-04-01T04:10:44;92928.31;;;11.35;72.96
28911;BME280;16028;42.642;23.310;2023-04-01T04:13:11;92917.91;;;11.35;73.29
28911;BME280;16028;42.642;23.310;2023-04-01T04:15:38;92906.50;;;11.36;73.76
28911;BME280;16028;42.642;23.310;2023-04-01T04:18:04;92896.72;;;11.38;73.11
28911;BME280;16028;42.642;23.310;2023-04-01T04:20:31;92897.06;;;11.50;73.69
28911;BME280;16028;42.642;23.310;2023-04-01T04:22:57;92897.63;;;11.45;73.07
28911;BME280;16028;42.642;23.310;2023-04-01T04:25:23;92896.97;;;11.43;71.91
28911;BME280;16028;42.642;23.310;2023-04-01T04:27:51;92899.41;;;11.45;71.57
28911;BME280;16028;42.642;23.310;2023-04-01T04:30:18;92889.47;;;11.48;69.18
28911;BME280;16028;42.642;23.310;2023-04-01T04:32:44;92889.97;;;11.58;69.53
28911;BME280;16028;42.642;23.310;2023-04-01T04:35:11;92872.75;;;11.72;67.39
28911;BME280;16028;42.642;23.310;2023-04-01T04:37:37;92881.88;;;11.68;66.92
28911;BME280;16028;42.642;23.310;2023-04-01T04:40:04;92874.97;;;11.60;67.16
28911;BME280;16028;42.642;23.310;2023-04-01T04:42:31;92873.06;;;11.69;66.40
28911;BME280;16028;42.642;23.310;2023-04-01T04:44:59;92871.03;;;11.64;66.96
28911;BME280;16028;42.642;23.310;2023-04-01T04:47:25;92871.84;;;11.50;68.83
28911;BME280;16028;42.642;23.310;2023-04-01T04:49:52;92868.34;;;11.43;70.22
28911;BME280;16028;42.642;23.310;2023-04-01T04:52:18;92877.41;;;11.47;70.09
28911;BME280;16028;42.642;23.310;2023-04-01T04:54:45;92874.09;;;11.39;70.72
28911;BME280;16028;42.642;23.310;2023-04-01T04:57:11;92864.94;;;11.28;71.09
28911;BME280;16028;42.642;23.310;2023-04-01T04:59:38;92865.56;;;11.30;70.77
28911;BME280;16028;42.642;23.310;2023-04-01T05:02:06;92860.63;;;11.35;71.38
28911;BME280;16028;42.642;23.310;2023-04-01T05:04:34;92856.22;;;11.21;71.95
28911;BME280;16028;42.642;23.310;2023-04-01T05:07:00;92858.47;;;11.24;73.32
28911;BME280;16028;42.642;23.310;2023-04-01T05:09:27;92860.25;;;11.24;72.15
28911;BME280;16028;42.642;23.310;2023-04-01T05:11:53;92865.22;;;11.19;73.39
28911;BME280;16028;42.642;23.310;2023-04-01T05:14:20;92855.44;;;11.06;73.03
28911;BME280;16028;42.642;23.310;2023-04-01T05:16:46;92843.50;;;10.97;73.19
28911;BME280;16028;42.642;23.310;2023-04-01T05:19:15;92838.09;;;10.84;75.55
28911;BME280;16028;42.642;23.310;2023-04-01T05:21:42;92826.78;;;10.91;75.14
28911;BME280;16028;42.642;23.310;2023-04-01T05:24:08;92826.63;;;10.93;74.36
28911;BME280;16028;42.642;23.310;2023-04-01T05:26:35;92822.13;;;10.87;74.37
28911;BME280;16028;42.642;23.310;2023-04-01T05:29:02;92814.94;;;10.89;75.34
28911;BME280;16028;42.642;23.310;2023-04-01T05:31:28;92825.00;;;10.92;74.02
28911;BME280;16028;42.642;23.310;2023-04-01T05:33:55;92826.00;;;10.91;74.96
28911;BME280;16028;42.642;23.310;2023-04-01T05:36:23;92811.81;;;11.08;72.38
28911;BME280;16028;42.642;23.310;2023-04-01T05:38:50;92818.63;;;11.09;71.87
28911;BME280;16028;42.642;23.310;2023-04-01T05:41:16;92811.00;;;11.07;73.43
28911;BME280;16028;42.642;23.310;2023-04-01T05:43:43;92821.84;;;11.11;73.94
28911;BME280;16028;42.642;23.310;2023-04-01T05:46:09;92825.63;;;11.23;71.96
28911;BME280;16028;42.642;23.310;2023-04-01T05:48:36;92825.28;;;11.26;71.82
28911;BME280;16028;42.642;23.310;2023-04-01T05:51:02;92821.06;;;11.25;72.53
28911;BME280;16028;42.642;23.310;2023-04-01T05:53:31;92816.44;;;11.56;68.92
28911;BME280;16028;42.642;23.310;2023-04-01T05:56:01;92802.69;;;11.77;66.73
28911;BME280;16028;42.642;23.310;2023-04-01T05:58:27;92797.88;;;11.81;67.53
28911;BME280;16028;42.642;23.310;2023-04-01T06:00:59;92797.78;;;11.89;68.92
28911;BME280;16028;42.642;23.310;2023-04-01T06:03:26;92808.72;;;11.99;69.19
28911;BME280;16028;42.642;23.310;2023-04-01T06:05:52;92802.31;;;12.23;66.00
28911;BME280;16028;42.642;23.310;2023-04-01T06:08:19;92800.72;;;12.22;67.26
28911;BME280;16028;42.642;23.310;2023-04-01T06:10:53;92807.84;;;12.34;66.84
28911;BME280;16028;42.642;23.310;2023-04-01T06:13:24;92800.75;;;12.49;66.23
28911;BME280;16028;42.642;23.310;2023-04-01T06:15:53;92808.63;;;12.56;65.77
28911;BME280;16028;42.642;23.310;2023-04-01T06:21:04;92811.13;;;12.70;64.48
28911;BME280;16028;42.642;23.310;2023-04-01T06:23:35;92806.38;;;12.81;64.26
28911;BME280;16028;42.642;23.310;2023-04-01T06:26:09;92813.22;;;12.82;62.85
28911;BME280;16028;42.642;23.310;2023-04-01T06:31:37;92801.28;;;12.66;63.79
28911;BME280;16028;42.642;23.310;2023-04-01T06:37:03;92778.75;;;12.93;59.85
28911;BME280;16028;42.642;23.310;2023-04-01T06:39:42;92774.25;;;13.08;59.04
28911;BME280;16028;42.642;23.310;2023-04-01T06:42:16;92763.78;;;13.08;61.32
28911;BME280;16028;42.642;23.310;2023-04-01T06:44:49;92761.19;;;13.08;61.49
28911;BME280;16028;42.642;23.310;2023-04-01T06:47:23;92779.16;;;13.24;62.05
28911;BME280;16028;42.642;23.310;2023-04-01T06:49:56;92777.63;;;13.36;61.66
28911;BME280;16028;42.642;23.310;2023-04-01T06:52:26;92774.38;;;13.34;59.52
28911;BME280;16028;42.642;23.310;2023-04-01T06:54:55;92757.94;;;13.34;60.46
28911;BME280;16028;42.642;23.310;2023-04-01T06:57:28;92750.50;;;13.44;58.93
28911;BME280;16028;42.642;23.310;2023-04-01T06:59:56;92748.88;;;13.36;60.02
28911;BME280;16028;42.642;23.310;2023-04-01T07:02:25;92748.66;;;13.31;61.83
28911;BME280;16028;42.642;23.310;2023-04-01T07:04:55;92750.09;;;13.34;62.46
28911;BME280;16028;42.642;23.310;2023-04-01T07:07:25;92756.34;;;13.39;60.06
28911;BME280;16028;42.642;23.310;2023-04-01T07:09:56;92750.09;;;13.47;58.53
28911;BME280;16028;42.642;23.310;2023-04-01T07:12:30;92729.47;;;13.58;56.77
28911;BME280;16028;42.642;23.310;2023-04-01T07:15:01;92740.94;;;13.70;57.85
28911;BME280;16028;42.642;23.310;2023-04-01T07:17:31;92739.13;;;13.64;56.44
28911;BME280;16028;42.642;23.310;2023-04-01T07:20:01;92738.69;;;13.54;57.02
28911;BME280;16028;42.642;23.310;2023-04-01T07:22:31;92739.69;;;13.53;56.79
28911;BME280;16028;42.642;23.310;2023-04-01T07:25:01;92761.34;;;13.41;58.91
28911;BME280;16028;42.642;23.310;2023-04-01T07:27:29;92773.41;;;13.42;60.44
28911;BME280;16028;42.642;23.310;2023-04-01T07:29:56;92763.38;;;13.45;60.60
28911;BME280;16028;42.642;23.310;2023-04-01T07:32:25;92757.91;;;13.40;61.04
28911;BME280;16028;42.642;23.310;2023-04-01T07:34:59;92752.72;;;13.47;61.15
28911;BME280;16028;42.642;23.310;2023-04-01T07:37:29;92760.34;;;13.42;60.57
28911;BME280;16028;42.642;23.310;2023-04-01T07:39:59;92760.97;;;13.50;60.12
28911;BME280;16028;42.642;23.310;2023-04-01T07:42:31;92748.78;;;13.70;57.63
28911;BME280;16028;42.642;23.310;2023-04-01T07:45:04;92750.38;;;13.65;60.22
28911;BME280;16028;42.642;23.310;2023-04-01T07:47:38;92746.19;;;13.77;58.94
28911;BME280;16028;42.642;23.310;2023-04-01T07:50:11;92750.97;;;13.60;61.33
28911;BME280;16028;42.642;23.310;2023-04-01T07:52:40;92756.59;;;13.57;61.47
28911;BME280;16028;42.642;23.310;2023-04-01T07:55:12;92747.97;;;13.70;59.99
28911;BME280;16028;42.642;23.310;2023-04-01T07:57:43;92756.44;;;13.65;60.67
28911;BME280;16028;42.642;23.310;2023-04-01T08:00:14;92748.78;;;13.70;61.17
28911;BME280;16028;42.642;23.310;2023-04-01T08:02:55;92747.16;;;13.69;61.10
28911;BME280;16028;42.642;23.310;2023-04-01T08:05:26;92733.66;;;13.59;61.60
28911;BME280;16028;42.642;23.310;2023-04-01T08:07:56;92712.19;;;13.64;59.55
28911;BME280;16028;42.642;23.310;2023-04-01T08:10:26;92707.78;;;13.71;59.52
28911;BME280;16028;42.642;23.310;2023-04-01T08:13:00;92720.25;;;13.75;59.79
28911;BME280;16028;42.642;23.310;2023-04-01T08:15:31;92725.69;;;13.81;61.44
28911;BME280;16028;42.642;23.310;2023-04-01T08:18:07;92719.66;;;13.87;54.65
28911;BME280;16028;42.642;23.310;2023-04-01T08:20:37;92712.84;;;14.12;59.23
28911;BME280;16028;42.642;23.310;2023-04-01T08:23:11;92691.34;;;14.23;60.20
28911;BME280;16028;42.642;23.310;2023-04-01T08:25:39;92683.72;;;14.35;56.35
28911;BME280;16028;42.642;23.310;2023-04-01T08:28:11;92662.94;;;14.59;51.21
28911;BME280;16028;42.642;23.310;2023-04-01T08:30:41;92666.34;;;14.73;56.59
28911;BME280;16028;42.642;23.310;2023-04-01T08:33:10;92669.91;;;14.85;56.58
28911;BME280;16028;42.642;23.310;2023-04-01T08:35:40;92634.84;;;14.99;55.82
28911;BME280;16028;42.642;23.310;2023-04-01T08:38:11;92638.19;;;15.13;52.14
28911;BME280;16028;42.642;23.310;2023-04-01T08:40:51;92631.44;;;15.36;48.15
28911;BME280;16028;42.642;23.310;2023-04-01T08:43:24;92612.44;;;15.79;45.38
28911;BME280;16028;42.642;23.310;2023-04-01T08:45:56;92608.44;;;16.01;42.46
28911;BME280;16028;42.642;23.310;2023-04-01T08:51:13;92610.94;;;16.14;50.63
28911;BME280;16028;42.642;23.310;2023-04-01T08:53:49;92608.44;;;16.01;50.91
28911;BME280;16028;42.642;23.310;2023-04-01T08:56:20;92616.94;;;15.97;52.38
28911;BME280;16028;42.642;23.310;2023-04-01T09:04:50;92620.44;;;16.33;48.65
28911;BME280;16028;42.642;23.310;2023-04-01T09:07:27;92614.09;;;16.41;48.71
28911;BME280;16028;42.642;23.310;2023-04-01T09:10:11;92621.44;;;16.57;49.42
28911;BME280;16028;42.642;23.310;2023-04-01T09:12:55;92613.28;;;16.83;47.57
28911;BME280;16028;42.642;23.310;2023-04-01T09:15:29;92614.97;;;16.96;46.83
28911;BME280;16028;42.642;23.310;2023-04-01T09:18:08;92604.66;;;17.13;44.27
28911;BME280;16028;42.642;23.310;2023-04-01T09:20:44;92600.81;;;17.27;44.88
28911;BME280;16028;42.642;23.310;2023-04-01T09:23:20;92605.78;;;17.35;45.73
28911;BME280;16028;42.642;23.310;2023-04-01T09:25:57;92588.13;;;17.54;44.23
28911;BME280;16028;42.642;23.310;2023-04-01T09:28:27;92590.75;;;17.54;42.40
28911;BME280;16028;42.642;23.310;2023-04-01T09:31:04;92581.44;;;17.58;43.08
28911;BME280;16028;42.642;23.310;2023-04-01T09:33:49;92582.72;;;17.67;43.23
28911;BME280;16028;42.642;23.310;2023-04-01T09:36:25;92575.06;;;17.77;41.62
28911;BME280;16028;42.642;23.310;2023-04-01T09:38:56;92579.19;;;17.84;40.87
28911;BME280;16028;42.642;23.310;2023-04-01T09:41:30;92566.28;;;17.94;41.81
28911;BME280;16028;42.642;23.310;2023-04-01T09:44:03;92573.25;;;18.01;41.13
28911;BME280;16028;42.642;23.310;2023-04-01T09:49:26;92543.75;;;18.22;40.75
28911;BME280;16028;42.642;23.310;2023-04-01T09:52:00;92543.88;;;18.27;41.16
28911;BME280;16028;42.642;23.310;2023-04-01T09:54:45;92543.97;;;18.32;41.18
28911;BME280;16028;42.642;23.310;2023-04-01T09:57:22;92554.16;;;18.28;41.32
28911;BME280;16028;42.642;23.310;2023-04-01T10:11:06;92519.22;;;18.68;37.33
28911;BME280;16028;42.642;23.310;2023-04-01T10:13:57;92514.69;;;18.91;35.03
28911;BME280;16028;42.642;23.310;2023-04-01T10:24:49;92492.78;;;19.47;35.22
28911;BME280;16028;42.642;23.310;2023-04-01T10:27:28;92491.16;;;19.30;35.85
28911;BME280;16028;42.642;23.310;2023-04-01T10:33:02;92489.06;;;19.32;35.66
28911;BME280;16028;42.642;23.310;2023-04-01T10:35:46;92480.34;;;19.31;35.84
28911;BME280;16028;42.642;23.310;2023-04-01T10:38:22;92476.44;;;19.34;35.71
28911;BME280;16028;42.642;23.310;2023-04-01T10:41:05;92473.31;;;19.37;36.43
28911;BME280;16028;42.642;23.310;2023-04-01T10:43:42;92470.81;;;19.42;35.69
28911;BME280;16028;42.642;23.310;2023-04-01T10:46:30;92466.34;;;19.42;35.73
28911;BME280;16028;42.642;23.310;2023-04-01T10:54:46;92448.53;;;19.21;35.22
28911;BME280;16028;42.642;23.310;2023-04-01T10:57:24;92446.50;;;19.12;35.96
28911;BME280;16028;42.642;23.310;2023-04-01T11:03:06;92436.38;;;19.03;36.02
28911;BME280;16028;42.642;23.310;2023-04-01T11:05:57;92441.78;;;18.97;35.67
28911;BME280;16028;42.642;23.310;2023-04-01T11:22:43;92463.91;;;18.68;38.37
28911;BME280;16028;42.642;23.310;2023-04-01T11:31:00;92500.03;;;17.97;41.84
28911;BME280;16028;42.642;23.310;2023-04-01T11:33:31;92497.88;;;17.83;43.11
28911;BME280;16028;42.642;23.310;2023-04-01T11:36:04;92511.94;;;17.77;44.37
28911;BME280;16028;42.642;23.310;2023-04-01T11:38:41;92516.16;;;17.66;43.99
28911;BME280;16028;42.642;23.310;2023-04-01T11:41:15;92556.75;;;17.40;46.00
28911;BME280;16028;42.642;23.310;2023-04-01T11:43:49;92552.88;;;16.83;50.88
28911;BME280;16028;42.642;23.310;2023-04-01T11:46:24;92620.66;;;15.51;53.34
28911;BME280;16028;42.642;23.310;2023-04-01T11:48:54;92670.25;;;15.08;62.20
28911;BME280;16028;42.642;23.310;2023-04-01T11:51:36;92667.38;;;14.39;68.30
28911;BME280;16028;42.642;23.310;2023-04-01T11:54:12;92704.91;;;13.05;77.81
28911;BME280;16028;42.642;23.310;2023-04-01T11:56:55;92707.44;;;12.51;85.55
28911;BME280;16028;42.642;23.310;2023-04-01T11:59:36;92712.34;;;12.05;88.08
28911;BME280;16028;42.642;23.310;2023-04-01T12:02:07;92735.00;;;11.84;91.56
28911;BME280;16028;42.642;23.310;2023-04-01T12:04:43;92715.31;;;11.81;94.39
28911;BME280;16028;42.642;23.310;2023-04-01T12:07:21;92702.38;;;11.88;98.42
28911;BME280;16028;42.642;23.310;2023-04-01T12:09:55;92692.16;;;11.86;100.00
28911;BME280;16028;42.642;23.310;2023-04-01T12:12:25;92701.09;;;11.77;100.00
28911;BME280;16028;42.642;23.310;2023-04-01T12:14:59;92681.53;;;11.88;100.00
28911;BME280;16028;42.642;23.310;2023-04-01T12:17:31;92688.13;;;11.84;100.00
28911;BME280;16028;42.642;23.310;2023-04-01T12:20:04;92679.19;;;11.93;100.00
28911;BME280;16028;42.642;23.310;2023-04-01T12:22:40;92678.09;;;11.87;100.00
28911;BME280;16028;42.642;23.310;2023-04-01T12:25:19;92684.75;;;11.90;100.00
28911;BME280;16028;42.642;23.310;2023-04-01T12:27:51;92683.56;;;11.92;100.00
28911;BME280;16028;42.642;23.310;2023-04-01T12:30:37;92692.63;;;11.96;98.82
28911;BME280;16028;42.642;23.310;2023-04-01T12:33:20;92663.88;;;12.11;97.27
28911;BME280;16028;42.642;23.310;2023-04-01T12:35:54;92694.81;;;12.20;96.93
28911;BME280;16028;42.642;23.310;2023-04-01T12:38:25;92694.75;;;12.14;91.75
28911;BME280;16028;42.642;23.310;2023-04-01T12:41:07;92712.50;;;12.25;95.08
28911;BME280;16028;42.642;23.310;2023-04-01T12:43:49;92714.47;;;12.23;92.48
28911;BME280;16028;42.642;23.310;2023-04-01T12:46:22;92707.28;;;12.25;92.31
28911;BME280;16028;42.642;23.310;2023-04-01T12:49:01;92712.50;;;12.25;91.96
28911;BME280;16028;42.642;23.310;2023-04-01T12:51:44;92693.28;;;12.33;95.24
28911;BME280;16028;42.642;23.310;2023-04-01T12:56:56;92691.34;;;12.13;87.41
28911;BME280;16028;42.642;23.310;2023-04-01T12:59:31;92693.25;;;12.26;91.74
28911;BME280;16028;42.642;23.310;2023-04-01T13:02:11;92685.81;;;12.23;96.90
28911;BME280;16028;42.642;23.310;2023-04-01T13:07:30;92664.34;;;12.21;88.28
28911;BME280;16028;42.642;23.310;2023-04-01T13:10:01;92678.94;;;12.15;86.79
28911;BME280;16028;42.642;23.310;2023-04-01T13:12:44;92649.56;;;12.28;91.34
28911;BME280;16028;42.642;23.310;2023-04-01T13:15:13;92621.28;;;12.32;84.09
28911;BME280;16028;42.642;23.310;2023-04-01T13:17:48;92593.13;;;12.55;91.38
28911;BME280;16028;42.642;23.310;2023-04-01T13:20:19;92588.56;;;12.70;94.98
28911;BME280;16028;42.642;23.310;2023-04-01T13:22:53;92601.72;;;13.03;96.86
28911;BME280;16028;42.642;23.310;2023-04-01T13:25:25;92600.81;;;13.50;88.10
28911;BME280;16028;42.642;23.310;2023-04-01T13:27:56;92581.13;;;13.54;94.83
28911;BME280;16028;42.642;23.310;2023-04-01T13:30:24;92617.31;;;13.50;95.26
28911;BME280;16028;42.642;23.310;2023-04-01T13:32:55;92584.94;;;13.25;98.48
28911;BME280;16028;42.642;23.310;2023-04-01T13:35:30;92593.84;;;12.90;89.31
28911;BME280;16028;42.642;23.310;2023-04-01T13:38:04;92607.16;;;13.01;91.93
28911;BME280;16028;42.642;23.310;2023-04-01T13:40:39;92603.13;;;13.05;95.07
28911;BME280;16028;42.642;23.310;2023-04-01T13:43:14;92586.06;;;13.03;85.79
28911;BME280;16028;42.642;23.310;2023-04-01T13:45:47;92575.88;;;13.21;83.79
28911;BME280;16028;42.642;23.310;2023-04-01T13:48:27;92580.94;;;13.29;84.64
28911;BME280;16028;42.642;23.310;2023-04-01T13:51:02;92571.50;;;13.48;79.24
28911;BME280;16028;42.642;23.310;2023-04-01T13:56:29;92566.44;;;13.99;72.45
28911;BME280;16028;42.642;23.310;2023-04-01T13:59:04;92570.97;;;14.49;66.08
28911;BME280;16028;42.642;23.310;2023-04-01T14:01:35;92564.19;;;14.86;66.03
28911;BME280;16028;42.642;23.310;2023-04-01T14:04:18;92530.50;;;15.03;56.85
28911;BME280;16028;42.642;23.310;2023-04-01T14:06:49;92521.69;;;15.22;58.66
28911;BME280;16028;42.642;23.310;2023-04-01T14:12:12;92533.09;;;15.03;56.87
28911;BME280;16028;42.642;23.310;2023-04-01T14:14:48;92525.03;;;15.04;60.49
28911;BME280;16028;42.642;23.310;2023-04-01T14:17:23;92536.53;;;14.97;58.12
28911;BME280;16028;42.642;23.310;2023-04-01T14:22:42;92504.97;;;14.92;54.52
28911;BME280;16028;42.642;23.310;2023-04-01T14:25:16;92516.25;;;14.92;56.31
28911;BME280;16028;42.642;23.310;2023-04-01T14:27:49;92488.81;;;14.95;55.90
28911;BME280;16028;42.642;23.310;2023-04-01T14:33:20;92504.44;;;14.76;60.20
28911;BME280;16028;42.642;23.310;2023-04-01T14:35:49;92507.19;;;14.88;60.84
28911;BME280;16028;42.642;23.310;2023-04-01T14:38:27;92490.00;;;14.99;54.83
28911;BME280;16028;42.642;23.310;2023-04-01T14:40:59;92489.53;;;15.08;56.43
28911;BME280;16028;42.642;23.310;2023-04-01T14:43:33;92512.22;;;15.21;52.13
28911;BME280;16028;42.642;23.310;2023-04-01T14:46:06;92512.44;;;15.51;52.54